Hlavní strana
METAR-TAF:

METAR-TAF

Letiště :

Letiště Kiruna

Kiruna, Švédsko

zeměpisná šířka: 67-49N, zeměpisná délka: 020-20E, výška: 452 m

Aktuální stav počasí

Zpráva byla vytvořena před 27 minutami, v 21:50 UTC
vítr z různých směrů 2 kt
Teplota -11°C
Vlhkost vzduchu 78%
Tlak 1005 hPa
Viditelnost 10 km a více
Žádná oblačnost pod 1500 m, nevyskytují se cumulonimby.

METAR: ESNQ 252150Z VRB02KT CAVOK M11/M14 Q1005

Čas: 23:17 (22:17 UTC)

Předpověď počasí

Zpráva byla vytvořena před 1 hodinou a 47 minutami, v 20:30 UTC
Předpověď platná od 25 v 21 UTC do 25 v 24 UTC
Severoseverozápadní vítr 4 kt
Viditelnost 10 km a více
Žádná oblačnost pod 1500 m, nevyskytují se cumulonimby.

TAF: ESNQ 252030Z 2521/2524 34004KT CAVOK

Stav a předpovědi počasí z více než 4 000 letišť (zprávy METAR a TAF).

Červené a žluté tečky na mapě představují dostupné meteorologické stanice.

Když kurzor umístíte na tečku, zobrazí se název stanice.

Pak kliknutím zobrazíte stav a předpověď počasí.

Chcete-li změnit mapu, kliknutím na zelené tlačítko se znaménkem +mapu přiblížíte, kliknutím na zelené tlačítko se znaménkem – mapu oddálíte a kliknutím na zelené šipky přejdete na sousední mapy.


METAR-TAF: